createdAt,value
2022-12-03T00:01:42.278Z,90.75
2022-12-03T00:04:12.057Z,90.73
2022-12-03T00:06:42.112Z,90.69
2022-12-03T00:09:12.144Z,90.67
2022-12-03T00:11:42.231Z,90.60
2022-12-03T00:14:12.592Z,90.58
2022-12-03T00:16:42.104Z,90.53
2022-12-03T00:19:12.099Z,90.61
2022-12-03T00:21:42.127Z,90.62
2022-12-03T00:24:12.142Z,90.62
2022-12-03T00:26:42.364Z,90.83
2022-12-03T00:29:12.118Z,90.90
2022-12-03T00:31:42.921Z,91.11
2022-12-03T00:39:12.406Z,92.09
2022-12-03T00:41:42.079Z,92.15
2022-12-03T00:44:13.218Z,92.08
2022-12-03T00:46:42.345Z,92.56
2022-12-03T00:49:12.157Z,92.54
2022-12-03T00:51:42.413Z,92.40
2022-12-03T00:54:12.098Z,92.60
2022-12-03T00:56:42.093Z,92.93
2022-12-03T00:59:12.178Z,93.39
2022-12-03T01:01:42.162Z,93.34
2022-12-03T01:04:12.643Z,93.36
2022-12-03T01:06:42.078Z,93.80
2022-12-03T01:09:12.279Z,93.72
2022-12-03T01:11:42.133Z,94.88
2022-12-03T01:14:14.260Z,94.38
2022-12-03T01:16:42.215Z,94.58
2022-12-03T01:19:14.920Z,94.71
2022-12-03T01:21:43.437Z,94.73
2022-12-03T01:24:12.612Z,95.04
2022-12-03T01:29:12.830Z,95.30
2022-12-03T01:31:52.069Z,95.26
2022-12-03T01:34:12.168Z,95.34
2022-12-03T01:36:42.397Z,95.38
2022-12-03T01:39:12.084Z,95.11
2022-12-03T01:41:42.495Z,94.93
2022-12-03T01:44:16.083Z,95.02
2022-12-03T01:46:42.747Z,95.18
2022-12-03T01:49:16.489Z,95.61
2022-12-03T01:51:42.215Z,95.47
2022-12-03T01:54:17.708Z,95.68
2022-12-03T01:56:42.528Z,95.29
2022-12-03T01:59:15.904Z,95.58
2022-12-03T02:01:42.255Z,95.70
2022-12-03T02:04:13.988Z,95.64
2022-12-03T02:06:43.596Z,95.52
2022-12-03T02:11:46.150Z,95.39
2022-12-03T02:14:18.475Z,95.30
2022-12-03T02:16:43.402Z,95.38
2022-12-03T02:19:20.677Z,95.45
2022-12-03T02:21:49.754Z,95.78
2022-12-03T02:24:20.700Z,95.74
2022-12-03T02:26:42.248Z,95.97
2022-12-03T02:29:12.320Z,95.94
2022-12-03T02:31:42.983Z,96.36
2022-12-03T02:36:42.293Z,96.50
2022-12-03T02:39:12.150Z,96.16
2022-12-03T02:44:12.412Z,95.93
2022-12-03T02:46:42.352Z,96.14
2022-12-03T02:49:12.270Z,96.14
2022-12-03T02:51:42.195Z,96.59
2022-12-03T02:54:12.454Z,96.42
2022-12-03T02:56:42.450Z,96.09
2022-12-03T02:59:12.173Z,96.23
2022-12-03T03:01:43.038Z,96.06
2022-12-03T03:04:12.765Z,95.79
2022-12-03T03:06:42.175Z,95.79
2022-12-03T03:09:12.482Z,95.87
2022-12-03T03:11:42.298Z,95.78
2022-12-03T03:14:15.044Z,95.98
2022-12-03T03:16:42.477Z,95.68
2022-12-03T03:19:12.233Z,96.00
2022-12-03T03:21:42.446Z,95.86
2022-12-03T03:24:12.158Z,95.76
2022-12-03T03:26:42.407Z,95.76
2022-12-03T03:29:12.492Z,95.49
2022-12-03T03:31:44.777Z,95.59
2022-12-03T03:34:13.231Z,95.62
2022-12-03T03:36:43.213Z,95.82
2022-12-03T03:39:13.009Z,96.13
2022-12-03T03:41:45.063Z,96.30
2022-12-03T03:46:42.616Z,96.74
2022-12-03T03:49:12.474Z,96.71
2022-12-03T03:51:42.681Z,97.03
2022-12-03T03:54:13.003Z,96.80
2022-12-03T03:56:42.204Z,96.92
2022-12-03T03:59:12.974Z,96.85
2022-12-03T04:01:43.577Z,96.96
2022-12-03T04:04:17.679Z,97.26
2022-12-03T04:06:42.147Z,97.53
2022-12-03T04:09:12.191Z,97.47
2022-12-03T04:11:52.251Z,97.12
2022-12-03T04:14:12.132Z,96.70
2022-12-03T04:19:12.395Z,96.82
2022-12-03T04:21:51.936Z,96.96
2022-12-03T04:24:12.474Z,97.41
2022-12-03T04:26:51.945Z,97.50
2022-12-03T04:29:13.139Z,97.07
2022-12-03T04:31:53.125Z,97.19
2022-12-03T04:34:22.325Z,97.31
2022-12-03T04:36:42.360Z,97.40
2022-12-03T04:39:12.183Z,97.11
2022-12-03T04:41:42.182Z,97.38
2022-12-03T04:44:21.995Z,97.14
2022-12-03T04:46:42.305Z,97.26
2022-12-03T04:49:12.452Z,97.36
2022-12-03T04:51:42.137Z,97.33
2022-12-03T04:54:12.565Z,97.00
2022-12-03T04:56:42.506Z,97.17
2022-12-03T04:59:16.194Z,97.20
2022-12-03T05:01:42.831Z,97.03
2022-12-03T05:04:13.431Z,96.82
2022-12-03T05:06:42.605Z,96.89
2022-12-03T05:09:12.753Z,96.74
2022-12-03T05:11:42.942Z,96.79
2022-12-03T05:14:12.611Z,96.79
2022-12-03T05:16:42.195Z,96.60
2022-12-03T05:21:42.506Z,96.55
2022-12-03T05:24:12.161Z,96.63
2022-12-03T05:26:42.215Z,96.62
2022-12-03T05:29:12.210Z,96.43
2022-12-03T05:34:12.320Z,96.33
2022-12-03T05:36:42.212Z,96.83
2022-12-03T05:39:12.361Z,96.28
2022-12-03T05:41:52.072Z,96.07
2022-12-03T05:44:15.093Z,96.47
2022-12-03T05:46:42.494Z,96.18
2022-12-03T05:49:12.221Z,96.13
2022-12-03T05:51:42.289Z,95.90
2022-12-03T05:56:42.164Z,95.82
2022-12-03T06:01:42.361Z,95.53
2022-12-03T06:04:12.400Z,95.83
2022-12-03T06:06:42.208Z,95.95
2022-12-03T06:09:12.592Z,95.70
2022-12-03T06:11:42.181Z,96.13
2022-12-03T06:14:12.280Z,96.08
2022-12-03T06:16:42.380Z,96.36
2022-12-03T06:21:42.213Z,96.19
2022-12-03T06:24:12.178Z,95.81
2022-12-03T06:26:42.383Z,96.18
2022-12-03T06:29:12.496Z,96.40
2022-12-03T06:31:42.449Z,96.03
2022-12-03T06:34:12.225Z,96.17
2022-12-03T06:36:42.304Z,96.21
2022-12-03T06:39:12.357Z,95.78
2022-12-03T06:41:42.459Z,96.01
2022-12-03T06:44:12.190Z,95.83
2022-12-03T06:46:42.789Z,95.50
2022-12-03T06:49:12.349Z,95.80
2022-12-03T06:51:42.258Z,95.78
2022-12-03T06:54:12.480Z,95.93
2022-12-03T06:56:45.068Z,95.71
2022-12-03T06:59:12.643Z,95.70
2022-12-03T07:01:42.329Z,95.56
2022-12-03T07:04:12.884Z,95.91
2022-12-03T07:06:42.758Z,96.08
2022-12-03T07:09:12.237Z,95.38
2022-12-03T07:11:42.563Z,95.65
2022-12-03T07:14:12.366Z,95.84
2022-12-03T07:16:42.714Z,95.94
2022-12-03T07:19:12.576Z,95.92
2022-12-03T07:21:42.243Z,95.86
2022-12-03T07:29:12.428Z,95.43
2022-12-03T07:31:42.443Z,95.71
2022-12-03T07:34:12.220Z,95.17
2022-12-03T07:36:42.329Z,95.21
2022-12-03T07:39:12.712Z,95.30
2022-12-03T07:41:42.229Z,94.97
2022-12-03T07:44:14.257Z,95.05
2022-12-03T07:46:42.441Z,95.09
2022-12-03T07:49:12.622Z,94.93
2022-12-03T07:51:52.334Z,95.23
2022-12-03T07:54:12.242Z,95.26
2022-12-03T07:56:42.413Z,95.25
2022-12-03T07:59:12.224Z,95.33
2022-12-03T08:01:42.292Z,95.25
2022-12-03T08:04:13.758Z,95.22
2022-12-03T08:06:42.381Z,95.50
2022-12-03T08:09:16.022Z,94.96
2022-12-03T08:11:47.946Z,94.75
2022-12-03T08:14:13.960Z,95.18
2022-12-03T08:16:44.835Z,95.22
2022-12-03T08:19:14.207Z,95.31
2022-12-03T08:21:42.700Z,94.88
2022-12-03T08:24:14.420Z,95.13
2022-12-03T08:26:43.450Z,94.37
2022-12-03T08:29:14.489Z,94.70
2022-12-03T08:31:46.958Z,94.13
2022-12-03T08:34:17.065Z,94.66
2022-12-03T08:36:42.314Z,94.21
2022-12-03T08:39:27.434Z,94.65
2022-12-03T08:41:52.281Z,94.19
2022-12-03T08:44:25.008Z,94.38
2022-12-03T08:46:42.325Z,94.12
2022-12-03T08:49:13.647Z,94.38
2022-12-03T08:51:43.332Z,94.61
2022-12-03T08:54:18.430Z,94.65
2022-12-03T08:56:43.897Z,94.38
2022-12-03T08:59:23.519Z,94.66
2022-12-03T09:01:43.927Z,94.67
2022-12-03T09:04:23.995Z,94.47
2022-12-03T09:06:42.267Z,94.58
2022-12-03T09:09:12.337Z,94.27
2022-12-03T09:14:18.349Z,93.89
2022-12-03T09:16:42.578Z,93.37
2022-12-03T09:19:12.273Z,94.01
2022-12-03T09:21:42.418Z,93.73
2022-12-03T09:24:12.683Z,93.51
2022-12-03T09:26:42.309Z,93.72
2022-12-03T09:29:12.923Z,93.37
2022-12-03T09:31:42.443Z,93.20
2022-12-03T09:34:12.311Z,93.09
2022-12-03T09:36:42.290Z,92.61
2022-12-03T09:39:12.423Z,92.87
2022-12-03T09:41:42.781Z,93.32
2022-12-03T09:44:17.681Z,92.91
2022-12-03T09:46:43.117Z,92.56
2022-12-03T09:49:16.623Z,93.28
2022-12-03T09:51:44.266Z,92.94
2022-12-03T09:54:20.852Z,93.13
2022-12-03T09:56:42.263Z,93.19
2022-12-03T10:01:42.934Z,92.62
2022-12-03T10:04:12.745Z,92.90
2022-12-03T10:06:45.772Z,92.49
2022-12-03T10:14:13.801Z,93.02
2022-12-03T10:16:42.943Z,93.23
2022-12-03T10:19:21.454Z,92.83
2022-12-03T10:21:42.281Z,92.49
2022-12-03T10:24:21.681Z,92.84
2022-12-03T10:26:44.128Z,92.89
2022-12-03T10:29:13.875Z,92.66
2022-12-03T10:31:42.557Z,92.17
2022-12-03T10:34:12.409Z,92.83
2022-12-03T10:36:42.329Z,92.84
2022-12-03T10:39:14.369Z,92.20
2022-12-03T10:41:43.861Z,92.52
2022-12-03T10:44:16.739Z,92.86
2022-12-03T10:46:43.390Z,92.70
2022-12-03T10:49:16.547Z,92.75
2022-12-03T10:51:43.670Z,92.83
2022-12-03T10:54:17.321Z,92.67
2022-12-03T10:56:43.259Z,92.54
2022-12-03T10:59:16.514Z,92.08
2022-12-03T11:01:42.481Z,92.16
2022-12-03T11:04:20.314Z,90.72
2022-12-03T11:06:42.415Z,92.16
2022-12-03T11:09:17.503Z,92.35
2022-12-03T11:11:42.437Z,92.02
2022-12-03T11:14:13.933Z,91.40
2022-12-03T11:17:02.097Z,92.18
2022-12-03T11:19:16.417Z,92.33
2022-12-03T11:22:03.794Z,91.95
2022-12-03T11:24:18.331Z,91.98
2022-12-03T11:27:02.066Z,92.08
2022-12-03T11:29:13.771Z,91.80
2022-12-03T11:31:45.604Z,91.83
2022-12-03T11:34:32.855Z,91.45
2022-12-03T11:39:12.382Z,90.81
2022-12-03T11:42:02.080Z,91.56
2022-12-03T11:44:28.304Z,91.38
2022-12-03T11:46:44.642Z,91.36
2022-12-03T11:49:24.856Z,90.91
2022-12-03T11:51:43.891Z,91.06
2022-12-03T11:54:16.737Z,91.21
2022-12-03T11:56:45.398Z,91.18
2022-12-03T12:01:43.721Z,91.15
2022-12-03T12:04:28.928Z,91.09
2022-12-03T12:06:44.045Z,90.94
2022-12-03T12:09:12.346Z,91.23
2022-12-03T12:11:42.900Z,91.17
2022-12-03T12:14:12.959Z,90.18
2022-12-03T12:16:49.317Z,91.03
2022-12-03T12:19:31.855Z,91.28
2022-12-03T12:21:46.744Z,90.99
2022-12-03T12:24:30.610Z,90.83
2022-12-03T12:29:12.832Z,91.21
2022-12-03T12:31:42.584Z,90.79
2022-12-03T12:34:12.332Z,90.65
2022-12-03T12:36:42.331Z,90.80
2022-12-03T12:39:13.819Z,91.07
2022-12-03T12:41:48.062Z,89.65
2022-12-03T12:44:13.316Z,90.67
2022-12-03T12:46:48.168Z,90.76
2022-12-03T12:49:14.256Z,90.19
2022-12-03T12:54:15.650Z,90.73
2022-12-03T12:56:44.501Z,90.58
2022-12-03T12:59:15.140Z,90.56
2022-12-03T13:01:43.713Z,90.86
2022-12-03T13:04:14.083Z,90.41
2022-12-03T13:06:43.544Z,89.73
2022-12-03T13:09:14.955Z,89.91
2022-12-03T13:11:44.776Z,90.42
2022-12-03T13:14:16.945Z,90.11
2022-12-03T13:16:43.296Z,90.16
2022-12-03T13:19:20.825Z,89.72
2022-12-03T13:21:43.650Z,90.17
2022-12-03T13:26:42.434Z,90.01
2022-12-03T13:29:14.897Z,89.80
2022-12-03T13:31:49.599Z,89.93
2022-12-03T13:34:17.498Z,89.34
2022-12-03T13:36:45.005Z,89.65
2022-12-03T13:39:18.863Z,89.30
2022-12-03T13:41:52.400Z,89.71
2022-12-03T13:44:16.035Z,89.31
2022-12-03T13:46:42.585Z,89.78
2022-12-03T13:49:17.712Z,89.77
2022-12-03T13:51:43.290Z,89.41
2022-12-03T13:54:17.839Z,89.61
2022-12-03T13:59:13.211Z,89.75
2022-12-03T14:01:42.597Z,89.59
2022-12-03T14:04:12.390Z,89.50
2022-12-03T14:06:42.419Z,89.55
2022-12-03T14:09:12.472Z,89.59
2022-12-03T14:11:52.179Z,89.90
2022-12-03T14:14:12.355Z,89.83
2022-12-03T14:16:42.690Z,90.03
2022-12-03T14:19:12.595Z,90.11
2022-12-03T14:24:12.507Z,89.42
2022-12-03T14:26:42.373Z,89.71
2022-12-03T14:29:12.534Z,90.02
2022-12-03T14:31:42.393Z,90.03
2022-12-03T14:34:12.363Z,89.86
2022-12-03T14:36:42.392Z,89.88
2022-12-03T14:39:12.348Z,89.83
2022-12-03T14:41:52.168Z,89.69
2022-12-03T14:44:12.326Z,89.55
2022-12-03T14:46:42.333Z,89.28
2022-12-03T14:51:42.848Z,89.50
2022-12-03T14:54:12.409Z,89.94
2022-12-03T14:56:42.359Z,90.06
2022-12-03T14:59:12.651Z,89.98
2022-12-03T15:01:42.603Z,90.13
2022-12-03T15:04:12.603Z,89.98
2022-12-03T15:06:42.408Z,90.32
2022-12-03T15:09:12.815Z,90.05
2022-12-03T15:11:46.180Z,89.99
2022-12-03T15:14:12.556Z,90.03
2022-12-03T15:16:42.654Z,89.98
2022-12-03T15:19:12.323Z,89.88
2022-12-03T15:24:12.401Z,90.01
2022-12-03T15:26:42.364Z,90.67
2022-12-03T15:29:12.562Z,90.13
2022-12-03T15:31:42.535Z,90.15
2022-12-03T15:34:15.025Z,90.16
2022-12-03T15:36:42.406Z,90.18
2022-12-03T15:39:12.364Z,90.26
2022-12-03T15:41:42.660Z,89.87
2022-12-03T15:44:12.605Z,89.96
2022-12-03T15:46:42.620Z,90.01
2022-12-03T15:49:12.415Z,90.41
2022-12-03T15:51:42.344Z,90.37
2022-12-03T15:54:12.698Z,90.29
2022-12-03T15:56:42.324Z,90.33
2022-12-03T15:59:12.425Z,90.16
2022-12-03T16:01:42.441Z,89.83
2022-12-03T16:04:12.345Z,89.95
2022-12-03T16:06:42.609Z,89.86
2022-12-03T16:09:12.368Z,89.68
2022-12-03T16:14:12.576Z,89.68
2022-12-03T16:16:42.374Z,89.97
2022-12-03T16:19:12.646Z,89.86
2022-12-03T16:21:42.392Z,89.97
2022-12-03T16:24:12.477Z,89.78
2022-12-03T16:26:42.398Z,89.50
2022-12-03T16:29:12.513Z,90.18
2022-12-03T16:31:44.902Z,90.27
2022-12-03T16:34:12.638Z,90.47
2022-12-03T16:36:44.660Z,90.62
2022-12-03T16:39:12.830Z,90.17
2022-12-03T16:41:42.410Z,89.88
2022-12-03T16:44:22.243Z,90.29
2022-12-03T16:46:42.542Z,90.42
2022-12-03T16:49:12.393Z,90.61
2022-12-03T16:51:42.364Z,90.20
2022-12-03T16:54:12.547Z,90.26
2022-12-03T16:56:42.607Z,90.30
2022-12-03T16:59:12.498Z,90.38
2022-12-03T17:01:42.468Z,90.16
2022-12-03T17:04:12.518Z,90.35
2022-12-03T17:06:42.465Z,90.35
2022-12-03T17:09:12.625Z,90.56
2022-12-03T17:11:42.363Z,90.52
2022-12-03T17:14:12.376Z,90.25
2022-12-03T17:16:42.395Z,90.48
2022-12-03T17:19:13.014Z,90.17
2022-12-03T17:21:42.534Z,90.23
2022-12-03T17:24:12.491Z,90.43
2022-12-03T17:26:43.620Z,90.32
2022-12-03T17:29:13.238Z,90.09
2022-12-03T17:31:42.896Z,90.31
2022-12-03T17:34:12.579Z,90.28
2022-12-03T17:36:42.556Z,90.52
2022-12-03T17:39:12.376Z,90.49
2022-12-03T17:41:42.454Z,90.65
2022-12-03T17:44:17.878Z,90.72
2022-12-03T17:49:12.563Z,90.69
2022-12-03T17:51:42.579Z,90.38
2022-12-03T17:54:12.942Z,90.51
2022-12-03T17:56:42.553Z,90.41
2022-12-03T17:59:12.795Z,90.40
2022-12-03T18:01:44.342Z,90.44
2022-12-03T18:04:13.845Z,90.28
2022-12-03T18:06:42.425Z,90.11
2022-12-03T18:09:12.571Z,90.16
2022-12-03T18:16:42.623Z,90.09
2022-12-03T18:19:12.394Z,89.94
2022-12-03T18:21:42.485Z,89.82
2022-12-03T18:24:12.426Z,89.85
2022-12-03T18:26:42.618Z,89.90
2022-12-03T18:29:12.595Z,89.95
2022-12-03T18:31:42.508Z,89.77
2022-12-03T18:36:42.535Z,89.92
2022-12-03T18:39:22.564Z,90.19
2022-12-03T18:41:42.664Z,90.10
2022-12-03T18:44:12.463Z,90.39
2022-12-03T18:46:53.560Z,90.54
2022-12-03T18:49:12.595Z,90.52
2022-12-03T18:51:42.517Z,90.35
2022-12-03T18:54:13.038Z,90.67
2022-12-03T18:56:42.523Z,90.64
2022-12-03T19:01:42.519Z,90.66
2022-12-03T19:04:12.714Z,90.55
2022-12-03T19:06:42.597Z,90.33
2022-12-03T19:11:42.502Z,90.50
2022-12-03T19:14:12.632Z,90.88
2022-12-03T19:16:43.479Z,91.33
2022-12-03T19:19:13.363Z,91.53
2022-12-03T19:21:42.401Z,91.35
2022-12-03T19:24:24.317Z,91.45
2022-12-03T19:26:42.449Z,91.63
2022-12-03T19:29:12.543Z,91.87
2022-12-03T19:31:42.707Z,91.73
2022-12-03T19:34:12.435Z,91.49
2022-12-03T19:36:42.447Z,91.61
2022-12-03T19:39:12.598Z,91.92
2022-12-03T19:41:43.625Z,91.94
2022-12-03T19:44:14.158Z,91.53
2022-12-03T19:46:43.430Z,91.89
2022-12-03T19:49:12.461Z,91.94
2022-12-03T19:51:42.441Z,91.92
2022-12-03T19:54:13.065Z,92.22
2022-12-03T19:56:43.206Z,92.31
2022-12-03T19:59:13.281Z,92.23
2022-12-03T20:01:42.612Z,92.17
2022-12-03T20:04:12.771Z,92.21
2022-12-03T20:06:44.352Z,92.10
2022-12-03T20:09:16.630Z,92.50
2022-12-03T20:11:43.599Z,92.56
2022-12-03T20:14:15.052Z,92.38
2022-12-03T20:16:43.455Z,92.51
2022-12-03T20:19:14.885Z,92.67
2022-12-03T20:21:43.802Z,92.52
2022-12-03T20:24:15.945Z,92.03
2022-12-03T20:26:43.088Z,92.03
2022-12-03T20:29:12.832Z,91.72
2022-12-03T20:31:43.158Z,91.81
2022-12-03T20:34:12.744Z,91.88
2022-12-03T20:36:43.257Z,92.03
2022-12-03T20:39:12.405Z,92.33
2022-12-03T20:41:42.461Z,92.11
2022-12-03T20:44:12.984Z,92.06
2022-12-03T20:46:42.643Z,92.17
2022-12-03T20:51:43.378Z,92.07
2022-12-03T20:54:12.464Z,92.50
2022-12-03T20:56:42.424Z,92.38
2022-12-03T20:59:14.809Z,92.41
2022-12-03T21:01:43.428Z,92.21
2022-12-03T21:04:12.734Z,92.14
2022-12-03T21:06:43.616Z,91.91
2022-12-03T21:09:13.467Z,91.51
2022-12-03T21:11:42.766Z,91.98
2022-12-03T21:14:12.634Z,91.68
2022-12-03T21:17:07.193Z,92.11
2022-12-03T21:19:12.450Z,92.06
2022-12-03T21:21:42.857Z,91.84
2022-12-03T21:24:12.674Z,92.17
2022-12-03T21:26:42.898Z,91.99
2022-12-03T21:29:12.483Z,91.94
2022-12-03T21:31:42.543Z,92.40
2022-12-03T21:34:12.579Z,92.16
2022-12-03T21:36:42.552Z,92.15
2022-12-03T21:39:12.502Z,91.96
2022-12-03T21:42:34.189Z,91.71
2022-12-03T21:44:12.560Z,91.82
2022-12-03T21:47:10.360Z,91.61
2022-12-03T21:49:13.517Z,91.26
2022-12-03T21:54:12.491Z,91.28
2022-12-03T21:56:42.660Z,91.08
2022-12-03T21:59:12.507Z,91.13
2022-12-03T22:01:46.894Z,90.87
2022-12-03T22:04:12.443Z,91.17
2022-12-03T22:06:42.579Z,91.18
2022-12-03T22:09:12.497Z,91.36
2022-12-03T22:14:12.540Z,91.65
2022-12-03T22:16:42.449Z,91.39
2022-12-03T22:19:12.472Z,91.46
2022-12-03T22:21:42.637Z,90.95
2022-12-03T22:26:42.521Z,91.35
2022-12-03T22:29:13.913Z,91.27
2022-12-03T22:31:42.443Z,91.44
2022-12-03T22:34:12.590Z,91.86
2022-12-03T22:36:42.493Z,91.53
2022-12-03T22:39:12.879Z,91.28
2022-12-03T22:41:43.461Z,91.23
2022-12-03T22:44:12.835Z,91.35
2022-12-03T22:46:42.687Z,91.35
2022-12-03T22:49:12.836Z,91.17
2022-12-03T22:51:44.570Z,90.91
2022-12-03T22:59:12.866Z,90.67
2022-12-03T23:01:42.463Z,90.75
2022-12-03T23:04:12.795Z,90.75
2022-12-03T23:06:42.748Z,90.77
2022-12-03T23:09:12.501Z,90.72
2022-12-03T23:11:43.472Z,90.71
2022-12-03T23:14:12.522Z,90.39
2022-12-03T23:16:42.605Z,90.73
2022-12-03T23:19:12.852Z,90.53
2022-12-03T23:21:42.540Z,90.16
2022-12-03T23:24:12.486Z,90.08
2022-12-03T23:26:42.520Z,90.07
2022-12-03T23:29:12.852Z,90.09
2022-12-03T23:31:42.652Z,90.35
2022-12-03T23:34:12.585Z,89.99
2022-12-03T23:36:42.493Z,90.36
2022-12-03T23:41:42.780Z,90.67
2022-12-03T23:44:12.465Z,90.30
2022-12-03T23:46:42.805Z,90.03
2022-12-03T23:49:12.705Z,89.94
2022-12-03T23:51:42.513Z,89.70
2022-12-03T23:54:12.764Z,90.02
2022-12-03T23:56:42.493Z,90.20
